Time;durP1;ratioP1;P1;durP2;ratioP2;P2;SDS_P1;SDS_P2;PMS_P1;PMS_P2;Temp;Humidity;BMP_temperature;BMP_pressure;BME280_temperature;BME280_humidity;BME280_pressure;Samples;Min_cycle;Max_cycle;Signal;HPM_P1;HPM_P2
2024/01/27 00:00:05;;;;;;;5.72;2.20;;;;;;;;;;4963539;28;42052;-72
2024/01/27 00:02:35;;;;;;;6.53;2.40;;;;;;;;;;4966991;28;41330;-72
2024/01/27 00:05:03;;;;;;;4.32;2.05;;;;;;;;;;4962760;28;41281;-72
2024/01/27 00:07:31;;;;;;;5.72;2.20;;;;;;;;;;4954004;28;41169;-72
2024/01/27 00:10:00;;;;;;;5.47;2.40;;;;;;;;;;4963549;28;42043;-73
2024/01/27 00:12:27;;;;;;;5.13;2.00;;;;;;;;;;4966318;28;42052;-72
2024/01/27 00:14:55;;;;;;;5.22;2.20;;;;;;;;;;4967820;28;41223;-73
2024/01/27 00:17:26;;;;;;;6.18;2.45;;;;;;;;;;4962429;28;42653;-73
2024/01/27 00:19:54;;;;;;;4.97;2.33;;;;;;;;;;4952315;28;42089;-72
2024/01/27 00:22:22;;;;;;;5.20;2.40;;;;;;;;;;4963445;28;42339;-72
2024/01/27 00:24:50;;;;;;;4.70;2.17;;;;;;;;;;4962089;28;41756;-72
2024/01/27 00:27:18;;;;;;;5.43;2.33;;;;;;;;;;4966448;28;43252;-73
2024/01/27 00:29:46;;;;;;;7.15;2.35;;;;;;;;;;4963495;28;41622;-73
2024/01/27 00:32:14;;;;;;;4.35;2.22;;;;;;;;;;4963465;28;41947;-72
2024/01/27 00:34:43;;;;;;;7.80;3.00;;;;;;;;;;4964203;28;40931;-72
2024/01/27 00:37:11;;;;;;;6.88;2.40;;;;;;;;;;4961798;28;41357;-73
2024/01/27 00:39:40;;;;;;;4.45;1.90;;;;;;;;;;4963635;28;42873;-72
2024/01/27 00:42:08;;;;;;;6.20;2.13;;;;;;;;;;4948685;28;39939;-72
2024/01/27 00:44:36;;;;;;;6.57;2.78;;;;;;;;;;4964116;28;41321;-72
2024/01/27 00:47:04;;;;;;;5.10;2.33;;;;;;;;;;4964257;28;41881;-72
2024/01/27 00:49:32;;;;;;;4.95;2.30;;;;;;;;;;4964970;28;41159;-73
2024/01/27 00:52:01;;;;;;;6.35;2.22;;;;;;;;;;4964807;28;43467;-72
2024/01/27 00:54:29;;;;;;;5.53;2.13;;;;;;;;;;4960947;28;41249;-72
2024/01/27 00:56:57;;;;;;;5.70;2.08;;;;;;;;;;4962556;28;42165;-72
2024/01/27 00:59:25;;;;;;;3.97;2.17;;;;;;;;;;4963079;28;41980;-72
2024/01/27 01:01:53;;;;;;;4.80;2.10;;;;;;;;;;4961512;28;41344;-72
2024/01/27 01:04:21;;;;;;;4.40;1.83;;;;;;;;;;4961797;28;41697;-72
2024/01/27 01:06:49;;;;;;;5.38;2.45;;;;;;;;;;4967927;28;43114;-72
2024/01/27 01:09:18;;;;;;;5.35;1.98;;;;;;;;;;4964746;28;41150;-71
2024/01/27 01:11:46;;;;;;;3.83;1.90;;;;;;;;;;4951308;28;40117;-69
2024/01/27 01:14:14;;;;;;;3.95;1.80;;;;;;;;;;4968290;28;41774;-71
2024/01/27 01:16:42;;;;;;;4.72;2.35;;;;;;;;;;4966823;28;41518;-69
2024/01/27 01:19:10;;;;;;;5.43;2.63;;;;;;;;;;4966671;28;42931;-69
2024/01/27 01:21:38;;;;;;;5.43;1.83;;;;;;;;;;4966110;28;40901;-71
2024/01/27 01:24:07;;;;;;;6.82;2.05;;;;;;;;;;4968298;28;41745;-71
2024/01/27 01:26:36;;;;;;;6.85;2.67;;;;;;;;;;4968421;28;42548;-71
2024/01/27 01:29:04;;;;;;;5.85;2.10;;;;;;;;;;4964049;28;40980;-71
2024/01/27 01:31:32;;;;;;;7.13;2.28;;;;;;;;;;4967099;28;42679;-71
2024/01/27 01:34:00;;;;;;;4.95;2.40;;;;;;;;;;4965809;28;41983;-70
2024/01/27 01:36:28;;;;;;;5.43;2.22;;;;;;;;;;4965287;28;42539;-71
2024/01/27 01:38:57;;;;;;;4.82;2.00;;;;;;;;;;4966281;28;43155;-72
2024/01/27 01:41:25;;;;;;;7.15;2.58;;;;;;;;;;4968918;28;40518;-71
2024/01/27 01:43:54;;;;;;;6.00;2.40;;;;;;;;;;4967655;28;42411;-71
2024/01/27 01:46:23;;;;;;;3.63;1.63;;;;;;;;;;4967519;28;41914;-72
2024/01/27 01:48:51;;;;;;;4.70;2.25;;;;;;;;;;4968340;28;41905;-71
2024/01/27 01:51:19;;;;;;;5.20;2.10;;;;;;;;;;4966535;28;41184;-71
2024/01/27 01:53:48;;;;;;;5.90;2.08;;;;;;;;;;4966912;28;41476;-71
2024/01/27 01:56:16;;;;;;;5.65;2.10;;;;;;;;;;4965076;28;41662;-71
2024/01/27 01:58:45;;;;;;;6.90;2.20;;;;;;;;;;4966017;28;42317;-71
2024/01/27 02:01:15;;;;;;;4.65;2.22;;;;;;;;;;4969122;28;41497;-71
2024/01/27 02:03:52;;;;;;;5.95;2.15;;;;;;;;;;4965641;28;41632;-71
2024/01/27 02:06:20;;;;;;;6.38;2.53;;;;;;;;;;4967529;28;42022;-71
2024/01/27 02:08:48;;;;;;;4.05;2.03;;;;;;;;;;4968203;28;41037;-72
2024/01/27 02:11:16;;;;;;;4.20;1.95;;;;;;;;;;4965163;28;41485;-71
2024/01/27 02:13:44;;;;;;;4.85;1.90;;;;;;;;;;4968409;28;41871;-71
2024/01/27 02:16:12;;;;;;;6.30;1.98;;;;;;;;;;4965547;28;40997;-71
2024/01/27 02:18:41;;;;;;;5.88;2.28;;;;;;;;;;4963204;28;42811;-71
2024/01/27 02:21:09;;;;;;;5.32;2.03;;;;;;;;;;4965361;28;41344;-71
2024/01/27 02:23:37;;;;;;;4.28;2.10;;;;;;;;;;4949383;28;41639;-72
2024/01/27 02:26:07;;;;;;;5.97;2.08;;;;;;;;;;4967561;28;42149;-71
2024/01/27 02:28:35;;;;;;;4.80;2.00;;;;;;;;;;4964782;28;41228;-71
2024/01/27 02:31:03;;;;;;;3.22;2.17;;;;;;;;;;4963543;28;41803;-71
2024/01/27 02:33:31;;;;;;;5.15;1.90;;;;;;;;;;4949740;28;41443;-71
2024/01/27 02:35:59;;;;;;;4.97;2.20;;;;;;;;;;4952420;28;41196;-71
2024/01/27 02:38:26;;;;;;;5.07;2.10;;;;;;;;;;4965049;28;41946;-71
2024/01/27 02:40:54;;;;;;;5.65;2.10;;;;;;;;;;4966604;28;40948;-70
2024/01/27 02:43:23;;;;;;;3.80;2.00;;;;;;;;;;4941680;28;42019;-70
2024/01/27 02:45:51;;;;;;;4.93;2.55;;;;;;;;;;4964006;28;42135;-71
2024/01/27 02:48:19;;;;;;;5.00;1.98;;;;;;;;;;4967997;28;41616;-71
2024/01/27 02:50:47;;;;;;;6.18;2.60;;;;;;;;;;4967886;28;41749;-72
2024/01/27 02:53:15;;;;;;;4.57;1.80;;;;;;;;;;4964383;28;42902;-71
2024/01/27 02:55:43;;;;;;;6.70;2.38;;;;;;;;;;4964788;28;41987;-71
2024/01/27 02:58:12;;;;;;;4.55;2.42;;;;;;;;;;4954130;28;43418;-71
2024/01/27 03:00:41;;;;;;;3.88;1.83;;;;;;;;;;4966108;28;43033;-71
2024/01/27 03:03:09;;;;;;;6.45;2.13;;;;;;;;;;4964179;28;42086;-71
2024/01/27 03:05:37;;;;;;;4.45;1.65;;;;;;;;;;4964003;28;42365;-71
2024/01/27 03:08:06;;;;;;;4.32;1.63;;;;;;;;;;4962535;28;42221;-71
2024/01/27 03:10:34;;;;;;;3.10;1.45;;;;;;;;;;4965724;28;41483;-71
2024/01/27 03:13:02;;;;;;;5.15;2.03;;;;;;;;;;4951653;28;43230;-71
2024/01/27 03:15:30;;;;;;;6.32;2.20;;;;;;;;;;4967832;28;41359;-71
2024/01/27 03:18:00;;;;;;;6.78;2.38;;;;;;;;;;4965142;28;40155;-71
2024/01/27 03:20:30;;;;;;;6.82;1.92;;;;;;;;;;4964191;28;41810;-71
2024/01/27 03:22:58;;;;;;;5.28;2.25;;;;;;;;;;4955205;28;40714;-71
2024/01/27 03:25:26;;;;;;;7.05;1.83;;;;;;;;;;4964504;28;42071;-72
2024/01/27 03:27:55;;;;;;;3.65;1.98;;;;;;;;;;4964036;28;41066;-71
2024/01/27 03:30:23;;;;;;;6.35;2.08;;;;;;;;;;4964643;28;41077;-71
2024/01/27 03:32:51;;;;;;;4.28;2.03;;;;;;;;;;4964567;28;41895;-71
2024/01/27 03:35:21;;;;;;;4.82;2.17;;;;;;;;;;4963065;28;41099;-74
2024/01/27 03:37:49;;;;;;;4.40;1.80;;;;;;;;;;4964247;28;41435;-73
2024/01/27 03:40:17;;;;;;;6.13;1.90;;;;;;;;;;4965158;28;42255;-73
2024/01/27 03:42:45;;;;;;;4.78;2.50;;;;;;;;;;4963699;28;40946;-73
2024/01/27 03:45:13;;;;;;;4.38;2.10;;;;;;;;;;4964790;28;41554;-73
2024/01/27 03:47:41;;;;;;;6.28;2.13;;;;;;;;;;4963268;28;41236;-73
2024/01/27 03:50:10;;;;;;;6.22;2.03;;;;;;;;;;4964830;28;41769;-74
2024/01/27 03:52:39;;;;;;;5.57;2.15;;;;;;;;;;4967322;28;42075;-71
2024/01/27 03:55:07;;;;;;;4.32;2.00;;;;;;;;;;4967134;28;41533;-71
2024/01/27 03:57:35;;;;;;;4.30;1.75;;;;;;;;;;4965802;28;42045;-71
2024/01/27 04:00:04;;;;;;;5.88;2.40;;;;;;;;;;4964545;28;41882;-71
2024/01/27 04:02:33;;;;;;;3.97;2.15;;;;;;;;;;4964442;28;41683;-71
2024/01/27 04:05:01;;;;;;;5.40;1.95;;;;;;;;;;4966805;28;42731;-71
2024/01/27 04:07:29;;;;;;;3.20;1.83;;;;;;;;;;4965236;28;41831;-71
2024/01/27 04:09:58;;;;;;;3.92;1.70;;;;;;;;;;4964091;28;42331;-71
2024/01/27 04:12:26;;;;;;;5.50;2.10;;;;;;;;;;4967141;28;41961;-71
2024/01/27 04:14:54;;;;;;;4.85;1.98;;;;;;;;;;4963671;28;42379;-73
2024/01/27 04:17:22;;;;;;;4.88;2.08;;;;;;;;;;4962992;28;42402;-68
2024/01/27 04:19:50;;;;;;;4.15;2.25;;;;;;;;;;4965314;28;42246;-69
2024/01/27 04:22:18;;;;;;;4.38;1.95;;;;;;;;;;4964456;28;41446;-69
2024/01/27 04:24:46;;;;;;;4.25;1.90;;;;;;;;;;4964245;28;42070;-70
2024/01/27 04:27:16;;;;;;;4.47;2.05;;;;;;;;;;4961325;28;42747;-71
2024/01/27 04:29:44;;;;;;;4.65;1.65;;;;;;;;;;4963218;28;41584;-71
2024/01/27 04:32:12;;;;;;;4.07;1.90;;;;;;;;;;4963079;28;41961;-71
2024/01/27 04:34:40;;;;;;;4.55;1.70;;;;;;;;;;4963392;28;41196;-71
2024/01/27 04:37:08;;;;;;;3.92;1.75;;;;;;;;;;4961559;28;42754;-71
2024/01/27 04:39:36;;;;;;;4.68;1.80;;;;;;;;;;4966116;28;42139;-71
2024/01/27 04:42:06;;;;;;;5.20;2.03;;;;;;;;;;4967917;28;40766;-71
2024/01/27 04:44:35;;;;;;;5.32;2.58;;;;;;;;;;4966691;28;42306;-72
2024/01/27 04:47:03;;;;;;;4.28;2.08;;;;;;;;;;4965964;28;41838;-71
2024/01/27 04:49:31;;;;;;;4.13;1.70;;;;;;;;;;4970068;28;41593;-71
2024/01/27 04:51:59;;;;;;;5.43;2.35;;;;;;;;;;4967585;28;41349;-71
2024/01/27 04:54:27;;;;;;;6.72;2.25;;;;;;;;;;4966793;28;41183;-71
2024/01/27 04:56:55;;;;;;;5.15;2.00;;;;;;;;;;4966442;28;41663;-71
2024/01/27 04:59:24;;;;;;;5.90;2.17;;;;;;;;;;4950668;28;40762;-71
2024/01/27 05:01:54;;;;;;;6.80;2.30;;;;;;;;;;4967309;28;41216;-71
2024/01/27 05:04:21;;;;;;;3.55;1.60;;;;;;;;;;4965456;28;41729;-71
2024/01/27 05:06:50;;;;;;;6.15;1.88;;;;;;;;;;4955092;28;42792;-71
2024/01/27 05:09:18;;;;;;;3.33;2.00;;;;;;;;;;4967341;28;41220;-72
2024/01/27 05:11:47;;;;;;;5.85;2.05;;;;;;;;;;4965720;28;41890;-71
2024/01/27 05:14:16;;;;;;;4.03;2.17;;;;;;;;;;4967107;28;42440;-71
2024/01/27 05:16:43;;;;;;;4.30;1.95;;;;;;;;;;4965958;28;42386;-71
2024/01/27 05:19:13;;;;;;;4.25;1.75;;;;;;;;;;4965820;28;42073;-71
2024/01/27 05:21:41;;;;;;;4.15;2.13;;;;;;;;;;4966761;28;41147;-71
2024/01/27 05:24:09;;;;;;;3.63;2.20;;;;;;;;;;4968530;28;41570;-71
2024/01/27 05:26:37;;;;;;;3.10;1.77;;;;;;;;;;4968459;28;42021;-72
2024/01/27 05:29:05;;;;;;;4.15;2.05;;;;;;;;;;4965862;28;41714;-69
2024/01/27 05:31:33;;;;;;;4.13;1.90;;;;;;;;;;4965176;28;41611;-70
2024/01/27 05:34:01;;;;;;;5.38;2.33;;;;;;;;;;4968664;28;43054;-70
2024/01/27 05:36:29;;;;;;;4.80;1.83;;;;;;;;;;4964229;28;41571;-70
2024/01/27 05:38:57;;;;;;;6.95;2.22;;;;;;;;;;4965761;28;42208;-70
2024/01/27 05:41:29;;;;;;;4.38;2.10;;;;;;;;;;4965538;28;42159;-70
2024/01/27 05:43:57;;;;;;;5.65;2.08;;;;;;;;;;4965155;28;41424;-69
2024/01/27 05:46:25;;;;;;;4.00;2.10;;;;;;;;;;4967200;28;42050;-70
2024/01/27 05:48:57;;;;;;;7.10;2.08;;;;;;;;;;4965068;28;41380;-70
2024/01/27 05:51:25;;;;;;;5.20;2.17;;;;;;;;;;4967840;28;42311;-70
2024/01/27 05:53:55;;;;;;;4.47;1.88;;;;;;;;;;4966096;28;42675;-69
2024/01/27 05:56:23;;;;;;;6.15;2.45;;;;;;;;;;4967993;28;42292;-70
2024/01/27 05:58:51;;;;;;;4.13;1.92;;;;;;;;;;4960095;28;41906;-70
2024/01/27 06:01:19;;;;;;;4.95;2.35;;;;;;;;;;4965337;28;41363;-69
2024/01/27 06:03:47;;;;;;;5.22;2.42;;;;;;;;;;4965163;28;41685;-70
2024/01/27 06:06:16;;;;;;;4.70;1.95;;;;;;;;;;4967864;28;42062;-70
2024/01/27 06:08:44;;;;;;;3.78;1.60;;;;;;;;;;4967145;28;41566;-70
2024/01/27 06:11:13;;;;;;;5.20;2.80;;;;;;;;;;4964319;28;42952;-69
2024/01/27 06:13:41;;;;;;;4.80;2.70;;;;;;;;;;4964572;28;41620;-70
2024/01/27 06:16:09;;;;;;;6.82;2.70;;;;;;;;;;4965286;28;41029;-70
2024/01/27 06:18:37;;;;;;;4.20;2.05;;;;;;;;;;4967011;28;42020;-69
2024/01/27 06:21:06;;;;;;;4.28;2.20;;;;;;;;;;4965914;28;41397;-70
2024/01/27 06:23:34;;;;;;;3.83;2.28;;;;;;;;;;4965792;28;42087;-70
2024/01/27 06:26:05;;;;;;;5.30;3.17;;;;;;;;;;4957266;28;42078;-70
2024/01/27 06:28:34;;;;;;;3.67;2.17;;;;;;;;;;4968526;28;42449;-70
2024/01/27 06:31:02;;;;;;;4.50;2.78;;;;;;;;;;4964908;28;40954;-70
2024/01/27 06:33:30;;;;;;;7.95;2.42;;;;;;;;;;4965435;28;41561;-70
2024/01/27 06:35:58;;;;;;;5.40;2.58;;;;;;;;;;4963910;28;41291;-70
2024/01/27 06:38:27;;;;;;;6.28;2.25;;;;;;;;;;4966160;28;41903;-72
2024/01/27 06:40:55;;;;;;;4.75;2.10;;;;;;;;;;4965329;28;41422;-72
2024/01/27 06:43:23;;;;;;;5.47;1.88;;;;;;;;;;4964637;28;41616;-72
2024/01/27 06:45:53;;;;;;;4.70;2.50;;;;;;;;;;4960699;28;40030;-72
2024/01/27 06:48:21;;;;;;;5.40;2.40;;;;;;;;;;4963146;28;41419;-72
2024/01/27 06:50:49;;;;;;;4.07;2.53;;;;;;;;;;4963985;28;41516;-72
2024/01/27 06:53:17;;;;;;;5.90;2.75;;;;;;;;;;4966589;28;43193;-72
2024/01/27 06:55:45;;;;;;;4.38;2.30;;;;;;;;;;4964770;28;41780;-71
2024/01/27 06:58:13;;;;;;;5.47;3.28;;;;;;;;;;4966488;28;41603;-73
2024/01/27 07:00:41;;;;;;;6.60;3.20;;;;;;;;;;4964749;28;43143;-72
2024/01/27 07:03:11;;;;;;;3.95;2.10;;;;;;;;;;4963165;28;42004;-72
2024/01/27 07:05:41;;;;;;;4.13;2.00;;;;;;;;;;4963780;28;42648;-72
2024/01/27 07:08:09;;;;;;;5.20;2.40;;;;;;;;;;4949050;28;39649;-72
2024/01/27 07:10:37;;;;;;;4.13;2.33;;;;;;;;;;4966153;28;41834;-72
2024/01/27 07:13:06;;;;;;;5.13;2.55;;;;;;;;;;4963848;28;41887;-71
2024/01/27 07:15:34;;;;;;;5.43;2.45;;;;;;;;;;4965123;28;40990;-72
2024/01/27 07:18:02;;;;;;;5.10;2.42;;;;;;;;;;4963278;28;41291;-72
2024/01/27 07:20:31;;;;;;;6.45;2.63;;;;;;;;;;4963635;28;42142;-72
2024/01/27 07:22:59;;;;;;;4.80;2.03;;;;;;;;;;4964616;28;40826;-72
2024/01/27 07:25:28;;;;;;;5.25;2.17;;;;;;;;;;4953671;28;42660;-72
2024/01/27 07:27:56;;;;;;;6.18;2.35;;;;;;;;;;4963624;28;41863;-72
2024/01/27 07:30:24;;;;;;;5.68;2.53;;;;;;;;;;4966613;28;41737;-71
2024/01/27 07:32:52;;;;;;;4.20;1.90;;;;;;;;;;4963572;28;41938;-72
2024/01/27 07:35:20;;;;;;;4.10;2.28;;;;;;;;;;4963323;28;42399;-72
2024/01/27 07:37:49;;;;;;;6.03;2.67;;;;;;;;;;4965667;28;42902;-72
2024/01/27 07:40:17;;;;;;;5.13;2.28;;;;;;;;;;4947182;28;40733;-72
2024/01/27 07:42:45;;;;;;;4.60;2.50;;;;;;;;;;4966356;28;41962;-72
2024/01/27 07:45:13;;;;;;;6.68;2.20;;;;;;;;;;4963828;28;42149;-72
2024/01/27 07:47:41;;;;;;;5.50;2.40;;;;;;;;;;4963692;28;41790;-72
2024/01/27 07:50:10;;;;;;;5.82;2.38;;;;;;;;;;4963061;28;43288;-72
2024/01/27 07:52:38;;;;;;;5.47;2.25;;;;;;;;;;4964767;28;41720;-72
2024/01/27 07:55:07;;;;;;;4.10;2.20;;;;;;;;;;4963201;28;42177;-72
2024/01/27 07:57:35;;;;;;;6.20;2.00;;;;;;;;;;4966784;28;41095;-72
2024/01/27 08:00:04;;;;;;;4.78;2.33;;;;;;;;;;4962373;28;42010;-72
2024/01/27 08:02:33;;;;;;;5.07;2.50;;;;;;;;;;4963523;28;41655;-72
2024/01/27 08:05:01;;;;;;;7.15;2.60;;;;;;;;;;4964037;28;41387;-72
2024/01/27 08:07:30;;;;;;;3.50;2.03;;;;;;;;;;4964919;28;32944;-72
2024/01/27 08:09:58;;;;;;;6.13;2.67;;;;;;;;;;4962381;28;42703;-72
2024/01/27 08:12:27;;;;;;;4.35;2.40;;;;;;;;;;4963523;28;42465;-72
2024/01/27 08:14:55;;;;;;;5.03;2.45;;;;;;;;;;4963396;28;41261;-72
2024/01/27 08:17:23;;;;;;;4.50;2.28;;;;;;;;;;4967488;28;41850;-72
2024/01/27 08:19:51;;;;;;;5.78;2.42;;;;;;;;;;4966150;28;41792;-72
2024/01/27 08:22:19;;;;;;;5.18;2.33;;;;;;;;;;4966155;28;41788;-72
2024/01/27 08:24:47;;;;;;;5.45;2.28;;;;;;;;;;4965924;28;42705;-72
2024/01/27 08:27:15;;;;;;;5.43;2.47;;;;;;;;;;4966986;28;41528;-72
2024/01/27 08:29:44;;;;;;;7.07;2.88;;;;;;;;;;4964406;28;42514;-72
2024/01/27 08:32:12;;;;;;;5.57;2.40;;;;;;;;;;4969474;28;41933;-72
2024/01/27 08:34:40;;;;;;;6.90;2.35;;;;;;;;;;4968387;28;42004;-72
2024/01/27 08:37:15;;;;;;;5.03;2.67;;;;;;;;;;4966083;28;41897;-72
2024/01/27 08:39:43;;;;;;;5.95;2.88;;;;;;;;;;4969421;28;42495;-72
2024/01/27 08:42:11;;;;;;;5.50;2.60;;;;;;;;;;4968556;28;42185;-72
2024/01/27 08:44:39;;;;;;;6.40;2.90;;;;;;;;;;4965888;28;41490;-72
2024/01/27 08:47:08;;;;;;;3.90;2.45;;;;;;;;;;4968638;28;41907;-72
2024/01/27 08:49:36;;;;;;;5.13;2.60;;;;;;;;;;4969607;28;42488;-72
2024/01/27 08:52:04;;;;;;;5.72;2.72;;;;;;;;;;4966221;28;41646;-72
2024/01/27 08:54:32;;;;;;;4.88;2.67;;;;;;;;;;4965628;28;41962;-71
2024/01/27 08:57:00;;;;;;;5.35;3.15;;;;;;;;;;4966645;28;41751;-72
2024/01/27 08:59:28;;;;;;;6.22;3.17;;;;;;;;;;4965611;28;42360;-72
2024/01/27 09:01:56;;;;;;;4.38;2.60;;;;;;;;;;4966477;28;41238;-72
2024/01/27 09:04:26;;;;;;;8.18;3.13;;;;;;;;;;4965620;28;41642;-72
2024/01/27 09:06:53;;;;;;;6.53;3.17;;;;;;;;;;4967208;28;42080;-71
2024/01/27 09:09:22;;;;;;;3.28;2.08;;;;;;;;;;4966087;28;42377;-72
2024/01/27 09:11:50;;;;;;;4.57;2.40;;;;;;;;;;4963329;28;40830;-72
2024/01/27 09:14:18;;;;;;;5.80;2.63;;;;;;;;;;4964716;28;40995;-72
2024/01/27 09:16:46;;;;;;;5.68;2.72;;;;;;;;;;4966190;28;42349;-72
2024/01/27 09:19:15;;;;;;;5.03;2.38;;;;;;;;;;4966749;28;40452;-72
2024/01/27 09:21:44;;;;;;;5.15;2.70;;;;;;;;;;4966205;28;41925;-72
2024/01/27 09:24:12;;;;;;;4.30;2.47;;;;;;;;;;4968393;28;41808;-72
2024/01/27 09:26:43;;;;;;;4.03;2.40;;;;;;;;;;4967141;28;43119;-72
2024/01/27 09:29:11;;;;;;;4.80;3.17;;;;;;;;;;4967753;28;42106;-72
2024/01/27 09:31:39;;;;;;;6.15;3.50;;;;;;;;;;4965288;28;41337;-71
2024/01/27 09:34:07;;;;;;;6.55;2.60;;;;;;;;;;4965843;28;42866;-72
2024/01/27 09:36:35;;;;;;;5.75;2.78;;;;;;;;;;4964736;28;42114;-72
2024/01/27 09:39:04;;;;;;;5.20;2.55;;;;;;;;;;4962041;28;43035;-72
2024/01/27 09:41:32;;;;;;;5.70;2.63;;;;;;;;;;4965076;28;40958;-72
2024/01/27 09:44:01;;;;;;;5.55;3.30;;;;;;;;;;4956641;28;41299;-72
2024/01/27 09:46:30;;;;;;;5.47;2.70;;;;;;;;;;4963810;28;42054;-72
2024/01/27 09:48:57;;;;;;;7.32;2.78;;;;;;;;;;4967531;28;41789;-72
2024/01/27 09:51:26;;;;;;;5.28;2.60;;;;;;;;;;4965681;28;41357;-72
2024/01/27 09:53:54;;;;;;;6.18;3.03;;;;;;;;;;4965684;28;42696;-72
2024/01/27 09:56:23;;;;;;;5.82;2.63;;;;;;;;;;4965501;28;42321;-72
2024/01/27 09:58:55;;;;;;;4.45;2.75;;;;;;;;;;4964584;28;42060;-73
2024/01/27 10:01:23;;;;;;;6.28;2.47;;;;;;;;;;4965671;28;41175;-71
2024/01/27 10:03:51;;;;;;;6.07;2.75;;;;;;;;;;4964399;28;41219;-72
2024/01/27 10:06:19;;;;;;;6.60;2.95;;;;;;;;;;4963009;28;42978;-72
2024/01/27 10:08:48;;;;;;;6.18;2.75;;;;;;;;;;4964303;28;41809;-69
2024/01/27 10:11:17;;;;;;;5.45;2.33;;;;;;;;;;4966334;28;41568;-70
2024/01/27 10:13:46;;;;;;;6.75;2.78;;;;;;;;;;4949717;28;40131;-70
2024/01/27 10:16:14;;;;;;;7.43;3.33;;;;;;;;;;4966056;28;40869;-69
2024/01/27 10:18:42;;;;;;;6.30;3.05;;;;;;;;;;4961541;28;41527;-69
2024/01/27 10:21:13;;;;;;;4.70;2.85;;;;;;;;;;4959117;28;41896;-72
2024/01/27 10:23:41;;;;;;;6.63;3.10;;;;;;;;;;4965479;28;41840;-72
2024/01/27 10:26:10;;;;;;;5.55;2.83;;;;;;;;;;4964825;28;42594;-72
2024/01/27 10:28:38;;;;;;;4.68;2.60;;;;;;;;;;4964437;28;40969;-72
2024/01/27 10:31:10;;;;;;;6.00;3.20;;;;;;;;;;4963831;28;41377;-72
2024/01/27 10:33:39;;;;;;;7.95;3.13;;;;;;;;;;4964431;28;42003;-72
2024/01/27 10:36:07;;;;;;;6.30;3.00;;;;;;;;;;4965167;28;41041;-72
2024/01/27 10:38:35;;;;;;;6.00;3.25;;;;;;;;;;4966526;28;42271;-72
2024/01/27 10:41:04;;;;;;;5.43;2.90;;;;;;;;;;4966185;28;41092;-72
2024/01/27 10:43:32;;;;;;;6.25;2.30;;;;;;;;;;4964591;28;41928;-72
2024/01/27 10:46:04;;;;;;;7.07;4.22;;;;;;;;;;4954895;28;41695;-71
2024/01/27 10:48:33;;;;;;;6.05;2.95;;;;;;;;;;4964763;28;42314;-72
2024/01/27 10:51:02;;;;;;;5.82;2.78;;;;;;;;;;4966404;28;41776;-72
2024/01/27 10:53:31;;;;;;;7.07;3.53;;;;;;;;;;4968309;28;43311;-72
2024/01/27 10:55:59;;;;;;;5.43;3.33;;;;;;;;;;4949217;28;40565;-71
2024/01/27 10:58:27;;;;;;;4.70;3.08;;;;;;;;;;4966978;28;41643;-73
2024/01/27 11:01:02;;;;;;;6.78;3.40;;;;;;;;;;5082877;27;1220408;-71
2024/01/27 11:03:30;;;;;;;6.47;3.15;;;;;;;;;;5123595;27;41861;-71
2024/01/27 11:05:58;;;;;;;6.45;3.72;;;;;;;;;;5122096;27;40364;-73
2024/01/27 11:08:29;;;;;;;7.68;4.82;;;;;;;;;;5124391;27;41512;-71
2024/01/27 11:10:57;;;;;;;8.32;5.30;;;;;;;;;;5120140;27;42347;-75
2024/01/27 11:13:26;;;;;;;10.57;6.10;;;;;;;;;;5120820;27;39719;-76
2024/01/27 11:15:54;;;;;;;8.20;4.75;;;;;;;;;;5119674;27;41597;-79
2024/01/27 11:18:23;;;;;;;6.88;3.10;;;;;;;;;;5107909;27;43099;-76
2024/01/27 11:20:53;;;;;;;9.68;5.15;;;;;;;;;;5123939;27;39889;-72
2024/01/27 11:23:21;;;;;;;12.75;5.07;;;;;;;;;;5124053;27;43000;-72
2024/01/27 11:25:50;;;;;;;7.72;3.08;;;;;;;;;;5122399;27;40022;-70
2024/01/27 11:28:20;;;;;;;7.30;3.70;;;;;;;;;;5108534;27;41715;-71
2024/01/27 11:30:48;;;;;;;10.45;4.40;;;;;;;;;;5122732;27;43348;-71
2024/01/27 11:33:15;;;;;;;8.95;3.92;;;;;;;;;;5120084;27;40154;-73
2024/01/27 11:35:45;;;;;;;6.97;3.30;;;;;;;;;;5121096;27;41157;-73
2024/01/27 11:38:14;;;;;;;14.00;4.88;;;;;;;;;;5122327;27;41755;-72
2024/01/27 11:40:45;;;;;;;9.07;4.50;;;;;;;;;;5120868;27;40729;-73
2024/01/27 11:43:13;;;;;;;11.70;3.55;;;;;;;;;;5115828;27;40818;-76
2024/01/27 11:45:42;;;;;;;6.35;3.40;;;;;;;;;;5109376;27;40890;-76
2024/01/27 11:48:10;;;;;;;6.53;3.75;;;;;;;;;;5120648;27;41306;-76
2024/01/27 11:50:38;;;;;;;9.85;4.20;;;;;;;;;;5121684;27;43302;-76
2024/01/27 11:53:09;;;;;;;6.43;2.70;;;;;;;;;;5119278;27;40296;-76
2024/01/27 11:55:38;;;;;;;9.60;4.50;;;;;;;;;;5122417;27;41214;-76
2024/01/27 11:58:08;;;;;;;11.07;3.42;;;;;;;;;;5122423;27;42166;-76
2024/01/27 12:00:36;;;;;;;8.45;3.78;;;;;;;;;;5122654;27;39898;-76
2024/01/27 12:03:04;;;;;;;7.40;3.25;;;;;;;;;;5121088;27;41493;-76
2024/01/27 12:05:32;;;;;;;9.13;4.00;;;;;;;;;;5124506;27;41544;-76
2024/01/27 12:08:00;;;;;;;9.10;2.83;;;;;;;;;;5114777;27;41604;-76
2024/01/27 12:10:29;;;;;;;9.60;3.45;;;;;;;;;;5119841;27;43181;-76
2024/01/27 12:12:57;;;;;;;7.15;3.20;;;;;;;;;;5107783;27;40443;-77
2024/01/27 12:15:26;;;;;;;9.00;3.20;;;;;;;;;;5104042;27;40980;-76
2024/01/27 12:17:54;;;;;;;6.00;3.38;;;;;;;;;;5108432;27;41374;-76
2024/01/27 12:20:22;;;;;;;6.90;3.22;;;;;;;;;;5099004;28;40197;-77
2024/01/27 12:22:52;;;;;;;7.82;3.45;;;;;;;;;;5106219;27;41613;-77
2024/01/27 12:25:22;;;;;;;6.78;2.35;;;;;;;;;;5108326;27;42023;-76
2024/01/27 12:27:51;;;;;;;8.30;4.00;;;;;;;;;;5108050;27;39930;-76
2024/01/27 12:30:19;;;;;;;8.88;3.38;;;;;;;;;;5107838;27;43103;-77
2024/01/27 12:32:47;;;;;;;5.80;2.80;;;;;;;;;;5107898;27;40120;-77
2024/01/27 12:35:15;;;;;;;5.70;3.10;;;;;;;;;;5101195;28;42179;-76
2024/01/27 12:37:44;;;;;;;7.68;3.92;;;;;;;;;;5107150;27;42668;-77
2024/01/27 12:40:17;;;;;;;6.72;3.42;;;;;;;;;;5107954;27;40974;-77
2024/01/27 12:42:51;;;;;;;6.90;3.10;;;;;;;;;;5099776;27;42032;-77
2024/01/27 12:45:19;;;;;;;6.70;3.50;;;;;;;;;;5106234;27;43190;-77
2024/01/27 12:47:48;;;;;;;8.38;4.20;;;;;;;;;;5098905;28;40547;-77
2024/01/27 12:50:16;;;;;;;6.13;3.55;;;;;;;;;;5108518;27;41453;-77
2024/01/27 12:52:44;;;;;;;8.63;3.40;;;;;;;;;;5107322;27;39636;-76
2024/01/27 12:55:12;;;;;;;7.68;2.92;;;;;;;;;;5106640;27;42487;-77
2024/01/27 12:57:40;;;;;;;5.55;3.00;;;;;;;;;;5106694;27;42596;-77
2024/01/27 13:00:10;;;;;;;8.23;3.92;;;;;;;;;;5101522;27;41493;-77
2024/01/27 13:02:38;;;;;;;8.38;3.97;;;;;;;;;;5106413;27;42033;-77
2024/01/27 13:05:06;;;;;;;7.25;3.47;;;;;;;;;;5094020;27;41582;-77
2024/01/27 13:07:34;;;;;;;7.57;3.05;;;;;;;;;;5106346;27;41397;-77
2024/01/27 13:10:02;;;;;;;8.55;3.50;;;;;;;;;;5094604;27;41495;-76
2024/01/27 13:12:30;;;;;;;6.70;3.25;;;;;;;;;;5107097;27;33678;-77
2024/01/27 13:14:59;;;;;;;7.07;3.05;;;;;;;;;;5107268;27;42565;-77
2024/01/27 13:17:28;;;;;;;7.40;4.15;;;;;;;;;;5108604;27;41959;-77
2024/01/27 13:19:56;;;;;;;7.45;2.92;;;;;;;;;;5107038;27;40210;-77
2024/01/27 13:22:24;;;;;;;5.95;2.60;;;;;;;;;;5107607;27;42548;-77
2024/01/27 13:24:53;;;;;;;6.85;3.42;;;;;;;;;;5106084;27;41879;-77
2024/01/27 13:27:21;;;;;;;9.73;3.70;;;;;;;;;;5108333;27;40332;-77
2024/01/27 13:29:49;;;;;;;9.13;3.38;;;;;;;;;;5106721;27;41496;-77
2024/01/27 13:32:17;;;;;;;10.55;4.25;;;;;;;;;;5101149;27;41559;-77
2024/01/27 13:34:47;;;;;;;7.53;3.78;;;;;;;;;;5090381;28;41653;-77
2024/01/27 13:37:15;;;;;;;7.05;2.88;;;;;;;;;;5102401;27;42054;-77
2024/01/27 13:39:43;;;;;;;5.55;2.60;;;;;;;;;;5096343;27;41061;-77
2024/01/27 13:42:11;;;;;;;7.13;2.95;;;;;;;;;;5105330;28;41475;-77
2024/01/27 13:44:39;;;;;;;8.25;3.13;;;;;;;;;;5107850;27;42742;-77
2024/01/27 13:47:09;;;;;;;7.80;3.72;;;;;;;;;;5105594;27;40156;-77
2024/01/27 13:49:38;;;;;;;6.93;3.85;;;;;;;;;;5098567;27;42328;-77
2024/01/27 13:52:08;;;;;;;7.05;2.95;;;;;;;;;;5103320;28;42029;-77
2024/01/27 13:54:36;;;;;;;10.43;4.10;;;;;;;;;;5107502;27;40547;-77
2024/01/27 13:57:04;;;;;;;5.90;3.45;;;;;;;;;;5095882;27;41596;-76
2024/01/27 13:59:33;;;;;;;5.50;2.50;;;;;;;;;;5105072;28;39718;-77
2024/01/27 14:02:01;;;;;;;5.55;3.20;;;;;;;;;;5105653;27;41909;-77
2024/01/27 14:04:29;;;;;;;8.00;3.20;;;;;;;;;;5091789;27;42373;-77
2024/01/27 14:06:57;;;;;;;7.57;3.63;;;;;;;;;;5092494;28;40443;-77
2024/01/27 14:09:27;;;;;;;7.68;2.88;;;;;;;;;;5105247;27;41455;-77
2024/01/27 14:11:55;;;;;;;9.30;3.50;;;;;;;;;;5106631;27;41566;-77
2024/01/27 14:14:23;;;;;;;5.70;2.92;;;;;;;;;;5106472;27;40300;-77
2024/01/27 14:16:51;;;;;;;6.47;3.10;;;;;;;;;;5105882;27;41946;-77
2024/01/27 14:19:19;;;;;;;8.07;2.78;;;;;;;;;;5106147;27;39896;-76
2024/01/27 14:21:47;;;;;;;9.20;3.20;;;;;;;;;;5105998;27;41376;-77
2024/01/27 14:24:15;;;;;;;7.32;3.25;;;;;;;;;;5106425;27;41576;-77
2024/01/27 14:26:44;;;;;;;5.57;2.95;;;;;;;;;;5103540;27;41084;-77
2024/01/27 14:29:12;;;;;;;6.43;2.55;;;;;;;;;;5105477;27;41676;-77
2024/01/27 14:31:40;;;;;;;5.70;2.42;;;;;;;;;;5105262;27;40258;-77
2024/01/27 14:34:09;;;;;;;8.57;3.05;;;;;;;;;;5104792;27;38852;-77
2024/01/27 14:36:38;;;;;;;6.65;3.00;;;;;;;;;;5105594;27;41693;-77
2024/01/27 14:39:10;;;;;;;4.70;2.33;;;;;;;;;;5103457;27;41958;-77
2024/01/27 14:41:41;;;;;;;5.30;2.50;;;;;;;;;;5107049;27;40167;-76
2024/01/27 14:44:11;;;;;;;7.10;2.75;;;;;;;;;;5103127;28;40905;-77
2024/01/27 14:46:40;;;;;;;6.28;3.10;;;;;;;;;;5104502;27;40387;-76
2024/01/27 14:49:08;;;;;;;8.00;2.90;;;;;;;;;;5104929;27;42361;-77